createdAt,value
2022-09-20T00:01:26.103Z,102119.25
2022-09-20T00:03:57.883Z,102113.69
2022-09-20T00:06:30.175Z,102111.97
2022-09-20T00:08:57.365Z,102115.56
2022-09-20T00:11:27.106Z,102121.97
2022-09-20T00:13:56.160Z,102106.66
2022-09-20T00:16:28.387Z,102113.06
2022-09-20T00:18:57.600Z,102120.34
2022-09-20T00:21:29.290Z,102114.19
2022-09-20T00:23:58.124Z,102118.63
2022-09-20T00:26:26.279Z,102118.75
2022-09-20T00:28:53.485Z,102123.31
2022-09-20T00:31:20.572Z,102127.97
2022-09-20T00:34:08.768Z,102129.81
2022-09-20T00:36:35.300Z,102134.50
2022-09-20T00:39:03.444Z,102137.34
2022-09-20T00:41:31.488Z,102134.84
2022-09-20T00:44:03.901Z,102136.03
2022-09-20T00:46:41.569Z,102127.16
2022-09-20T00:49:21.241Z,102132.69
2022-09-20T00:51:52.308Z,102128.38
2022-09-20T00:54:22.097Z,102125.78
2022-09-20T00:56:48.771Z,102133.78
2022-09-20T00:59:33.009Z,102126.41
2022-09-20T01:02:09.112Z,102119.03
2022-09-20T01:04:38.951Z,102129.75
2022-09-20T01:07:07.981Z,102124.44
2022-09-20T01:09:34.730Z,102129.13
2022-09-20T01:12:06.289Z,102128.50
2022-09-20T01:14:33.998Z,102127.75
2022-09-20T01:17:05.396Z,102129.69
2022-09-20T01:19:58.754Z,102133.41
2022-09-20T01:23:04.190Z,102123.66
2022-09-20T01:25:56.462Z,102126.47
2022-09-20T01:28:23.771Z,102125.59
2022-09-20T01:31:29.337Z,102136.69
2022-09-20T01:34:02.014Z,102128.66
2022-09-20T01:36:42.467Z,102136.06
2022-09-20T01:39:27.207Z,102128.16
2022-09-20T01:41:58.587Z,102125.75
2022-09-20T01:44:33.819Z,102130.41
2022-09-20T01:47:10.844Z,102116.13
2022-09-20T01:50:10.929Z,102130.66
2022-09-20T01:53:00.236Z,102124.13
2022-09-20T01:55:48.995Z,102125.97
2022-09-20T01:59:22.565Z,102128.06
2022-09-20T02:02:20.232Z,102123.84
2022-09-20T02:05:23.417Z,102134.56
2022-09-20T02:07:55.791Z,102129.25
2022-09-20T02:10:32.413Z,102132.72
2022-09-20T02:13:06.564Z,102132.72
2022-09-20T02:16:03.417Z,102135.44
2022-09-20T02:19:07.934Z,102133.47
2022-09-20T02:21:56.022Z,102135.44
2022-09-20T02:24:45.476Z,102143.69
2022-09-20T02:27:18.275Z,102136.41
2022-09-20T02:29:52.378Z,102124.81
2022-09-20T02:32:48.005Z,102132.09
2022-09-20T02:35:28.959Z,102127.41
2022-09-20T02:38:05.621Z,102126.56
2022-09-20T02:40:50.314Z,102115.81
2022-09-20T02:43:22.728Z,102106.06
2022-09-20T02:46:01.468Z,102112.47
2022-09-20T02:48:39.223Z,102107.06
2022-09-20T02:51:19.406Z,102114.22
2022-09-20T02:54:05.044Z,102111.50
2022-09-20T02:56:59.371Z,102116.06
2022-09-20T02:59:29.752Z,102112.47
2022-09-20T03:02:24.802Z,102115.31
2022-09-20T03:05:22.364Z,102121.47
2022-09-20T03:08:14.743Z,102119.50
2022-09-20T03:11:13.259Z,102122.22
2022-09-20T03:14:00.582Z,102123.97
2022-09-20T03:16:32.947Z,102125.81
2022-09-20T03:19:36.314Z,102124.28
2022-09-20T03:22:20.047Z,102126.13
2022-09-20T03:24:56.548Z,102128.09
2022-09-20T03:27:32.985Z,102125.72
2022-09-20T03:30:19.778Z,102129.41
2022-09-20T03:33:04.214Z,102119.69
2022-09-20T03:35:37.845Z,102122.38
2022-09-20T03:38:22.396Z,102126.81
2022-09-20T03:41:07.757Z,102121.28
2022-09-20T03:43:55.967Z,102124.88
2022-09-20T03:46:29.549Z,102120.31
2022-09-20T03:49:33.547Z,102130.50
2022-09-20T03:52:19.156Z,102125.84
2022-09-20T03:55:23.028Z,102127.81
2022-09-20T03:57:49.487Z,102129.41
2022-09-20T04:00:34.645Z,102133.75
2022-09-20T04:03:30.614Z,102125.72
2022-09-20T04:05:57.198Z,102123.88
2022-09-20T04:09:01.401Z,102126.72
2022-09-20T04:11:37.585Z,102124.63
2022-09-20T04:14:23.795Z,102132.53
2022-09-20T04:17:19.089Z,102129.84
2022-09-20T04:19:52.294Z,102127.13
2022-09-20T04:22:22.415Z,102124.41
2022-09-20T04:25:43.760Z,102128.09
2022-09-20T04:28:25.455Z,102136.13
2022-09-20T04:30:59.410Z,102129.84
2022-09-20T04:33:39.756Z,102125.50
2022-09-20T04:36:29.553Z,102132.78
2022-09-20T04:39:02.081Z,102129.41
2022-09-20T04:42:09.102Z,102131.38
2022-09-20T04:45:07.860Z,102124.13
2022-09-20T04:47:59.146Z,102134.94
2022-09-20T04:50:50.178Z,102127.06
2022-09-20T04:53:53.777Z,102140.06
2022-09-20T04:56:28.514Z,102139.44
2022-09-20T04:59:06.464Z,102143.34
2022-09-20T05:02:03.909Z,102144.22
2022-09-20T05:04:55.185Z,102151.47
2022-09-20T05:07:25.265Z,102147.91
2022-09-20T05:10:01.203Z,102147.13
2022-09-20T05:12:43.050Z,102148.13
2022-09-20T05:15:36.299Z,102153.75
2022-09-20T05:18:27.870Z,102149.31
2022-09-20T05:21:08.185Z,102151.91
2022-09-20T05:24:09.494Z,102151.91
2022-09-20T05:27:03.384Z,102152.03
2022-09-20T05:30:04.382Z,102156.56
2022-09-20T05:32:50.628Z,102152.25
2022-09-20T05:35:29.314Z,102150.63
2022-09-20T05:38:04.800Z,102158.97
2022-09-20T05:40:49.707Z,102163.75
2022-09-20T05:43:45.312Z,102164.59
2022-09-20T05:46:26.646Z,102166.78
2022-09-20T05:49:04.244Z,102170.56
2022-09-20T05:51:48.633Z,102162.75
2022-09-20T05:54:52.597Z,102176.38
2022-09-20T05:57:41.065Z,102176.38
2022-09-20T06:00:18.128Z,102175.72
2022-09-20T06:03:22.861Z,102181.25
2022-09-20T06:06:14.455Z,102179.50
2022-09-20T06:08:51.893Z,102185.91
2022-09-20T06:11:38.981Z,102188.72
2022-09-20T06:14:20.209Z,102191.41
2022-09-20T06:17:11.869Z,102195.97
2022-09-20T06:19:48.841Z,102192.38
2022-09-20T06:22:37.426Z,102192.28
2022-09-20T06:25:10.219Z,102197.47
2022-09-20T06:27:45.390Z,102182.75
2022-09-20T06:30:36.386Z,102190.59
2022-09-20T06:33:05.985Z,102189.22
2022-09-20T06:35:59.087Z,102191.47
2022-09-20T06:38:53.473Z,102191.78
2022-09-20T06:41:28.637Z,102203.81
2022-09-20T06:44:01.860Z,102199.78
2022-09-20T06:46:30.674Z,102202.16
2022-09-20T06:48:57.863Z,102202.59
2022-09-20T06:51:27.051Z,102193.16
2022-09-20T06:53:57.216Z,102200.06
2022-09-20T06:56:26.971Z,102204.06
2022-09-20T06:58:54.430Z,102206.22
2022-09-20T07:01:29.725Z,102209.38
2022-09-20T07:04:01.235Z,102204.34
2022-09-20T07:06:28.783Z,102205.63
2022-09-20T07:08:55.459Z,102203.31
2022-09-20T07:11:23.162Z,102206.69
2022-09-20T07:13:56.120Z,102212.75
2022-09-20T07:16:22.761Z,102208.97
2022-09-20T07:18:51.975Z,102215.66
2022-09-20T07:21:20.316Z,102214.84
2022-09-20T07:23:51.217Z,102214.66
2022-09-20T07:26:29.096Z,102212.41
2022-09-20T07:28:57.400Z,102212.09
2022-09-20T07:31:26.452Z,102213.84
2022-09-20T07:33:55.340Z,102222.88
2022-09-20T07:36:22.145Z,102223.53
2022-09-20T07:38:50.743Z,102222.47
2022-09-20T07:41:22.717Z,102224.09
2022-09-20T07:43:50.776Z,102224.56
2022-09-20T07:46:17.326Z,102224.06
2022-09-20T07:48:44.139Z,102225.78
2022-09-20T07:51:13.475Z,102230.31
2022-09-20T07:53:44.223Z,102228.63
2022-09-20T07:56:13.675Z,102233.03
2022-09-20T07:58:40.983Z,102229.56
2022-09-20T08:01:10.219Z,102235.09
2022-09-20T08:03:42.821Z,102231.44
2022-09-20T08:06:11.962Z,102234.97
2022-09-20T08:08:40.574Z,102233.94
2022-09-20T08:11:10.321Z,102231.16
2022-09-20T08:16:31.739Z,102230.47
2022-09-20T08:19:01.588Z,102230.19
2022-09-20T08:21:33.222Z,102230.06
2022-09-20T08:24:04.594Z,102229.06
2022-09-20T08:26:31.564Z,102235.25
2022-09-20T08:28:59.746Z,102239.56
2022-09-20T08:31:31.587Z,102241.44
2022-09-20T08:33:59.299Z,102236.25
2022-09-20T08:36:26.550Z,102239.25
2022-09-20T08:41:58.458Z,102240.09
2022-09-20T08:44:35.659Z,102243.97
2022-09-20T08:47:16.602Z,102239.38
2022-09-20T08:49:46.117Z,102245.69
2022-09-20T08:52:36.309Z,102257.59
2022-09-20T08:55:13.522Z,102254.59
2022-09-20T08:57:40.037Z,102256.31
2022-09-20T09:00:07.531Z,102260.63
2022-09-20T09:02:34.353Z,102254.66
2022-09-20T09:05:33.377Z,102255.97
2022-09-20T09:08:04.975Z,102255.84
2022-09-20T09:10:42.490Z,102263.88
2022-09-20T09:13:19.388Z,102262.88
2022-09-20T09:15:53.461Z,102259.03
2022-09-20T09:18:19.994Z,102263.47
2022-09-20T09:20:47.108Z,102260.03
2022-09-20T09:23:26.824Z,102256.56
2022-09-20T09:25:56.577Z,102261.16
2022-09-20T09:28:25.702Z,102266.88
2022-09-20T09:30:52.176Z,102271.47
2022-09-20T09:33:50.189Z,102266.28
2022-09-20T09:36:23.496Z,102268.69
2022-09-20T09:38:50.283Z,102265.75
2022-09-20T09:41:32.886Z,102275.84
2022-09-20T09:44:09.579Z,102277.50
2022-09-20T09:46:38.390Z,102273.56
2022-09-20T09:49:20.233Z,102279.50
2022-09-20T09:52:13.155Z,102278.44
2022-09-20T09:54:53.769Z,102287.00
2022-09-20T09:57:33.018Z,102288.25
2022-09-20T10:00:22.059Z,102287.75
2022-09-20T10:03:04.150Z,102281.09
2022-09-20T10:05:46.744Z,102282.50
2022-09-20T10:08:25.095Z,102281.13
2022-09-20T10:11:10.143Z,102290.06
2022-09-20T10:14:05.378Z,102292.31
2022-09-20T10:17:05.446Z,102288.84
2022-09-20T10:19:50.392Z,102284.41
2022-09-20T10:22:24.031Z,102287.13
2022-09-20T10:25:11.547Z,102288.00
2022-09-20T10:28:08.898Z,102284.03
2022-09-20T10:30:52.402Z,102289.69
2022-09-20T10:33:26.392Z,102286.59
2022-09-20T10:36:18.031Z,102286.19
2022-09-20T10:39:05.964Z,102287.53
2022-09-20T10:42:29.287Z,102289.03
2022-09-20T10:45:59.134Z,102281.31
2022-09-20T10:48:33.062Z,102285.66
2022-09-20T10:51:06.716Z,102288.09
2022-09-20T10:53:54.911Z,102283.41
2022-09-20T10:56:36.861Z,102289.31
2022-09-20T10:59:22.376Z,102289.66
2022-09-20T11:01:58.080Z,102283.47
2022-09-20T11:04:49.868Z,102288.38
2022-09-20T11:07:56.373Z,102283.41
2022-09-20T11:10:25.547Z,102287.22
2022-09-20T11:13:08.606Z,102292.34
2022-09-20T11:15:54.441Z,102300.19
2022-09-20T11:18:44.970Z,102293.53
2022-09-20T11:21:27.184Z,102292.47
2022-09-20T11:24:11.588Z,102296.69
2022-09-20T11:26:44.755Z,102301.34
2022-09-20T11:29:20.624Z,102290.78
2022-09-20T11:31:50.840Z,102296.22
2022-09-20T11:34:32.735Z,102301.53
2022-09-20T11:37:03.036Z,102300.28
2022-09-20T11:39:48.492Z,102301.41
2022-09-20T11:42:20.137Z,102311.72
2022-09-20T11:44:48.773Z,102304.78
2022-09-20T11:47:54.980Z,102305.75
2022-09-20T11:51:11.066Z,102307.88
2022-09-20T11:54:01.846Z,102306.88
2022-09-20T11:56:31.679Z,102296.69
2022-09-20T11:59:00.802Z,102298.69
2022-09-20T12:01:37.754Z,102304.03
2022-09-20T12:04:34.553Z,102296.44
2022-09-20T12:07:08.333Z,102298.47
2022-09-20T12:09:40.506Z,102296.09
2022-09-20T12:12:22.198Z,102295.84
2022-09-20T12:14:58.580Z,102308.53
2022-09-20T12:17:47.859Z,102297.19
2022-09-20T12:20:32.750Z,102298.03
2022-09-20T12:23:50.702Z,102283.53
2022-09-20T12:26:23.098Z,102277.22
2022-09-20T12:28:50.821Z,102278.06
2022-09-20T12:31:26.081Z,102284.13
2022-09-20T12:34:11.716Z,102275.13
2022-09-20T12:36:46.572Z,102280.44
2022-09-20T12:39:16.242Z,102272.69
2022-09-20T12:41:58.444Z,102273.13
2022-09-20T12:44:40.200Z,102272.84
2022-09-20T12:47:18.355Z,102276.47
2022-09-20T12:50:06.393Z,102272.84
2022-09-20T12:52:53.738Z,102270.84
2022-09-20T12:55:32.844Z,102266.09
2022-09-20T12:58:14.495Z,102256.88
2022-09-20T13:01:01.013Z,102262.22
2022-09-20T13:03:48.147Z,102264.50
2022-09-20T13:06:15.563Z,102261.47
2022-09-20T13:08:43.362Z,102257.00
2022-09-20T13:11:20.043Z,102260.31
2022-09-20T13:13:57.537Z,102257.13
2022-09-20T13:16:36.934Z,102256.69
2022-09-20T13:19:16.384Z,102255.53
2022-09-20T13:21:54.137Z,102262.41
2022-09-20T13:24:49.907Z,102263.13
2022-09-20T13:27:22.225Z,102254.84
2022-09-20T13:29:49.271Z,102253.06
2022-09-20T13:32:23.343Z,102255.81
2022-09-20T13:35:15.407Z,102255.88
2022-09-20T13:37:44.955Z,102246.19
2022-09-20T13:40:50.061Z,102257.59
2022-09-20T13:43:55.636Z,102256.16
2022-09-20T13:46:31.334Z,102259.22
2022-09-20T13:49:14.820Z,102258.72
2022-09-20T13:51:41.346Z,102256.91
2022-09-20T13:54:29.338Z,102256.81
2022-09-20T13:57:00.804Z,102256.00
2022-09-20T13:59:34.039Z,102253.88
2022-09-20T14:02:01.030Z,102252.75
2022-09-20T14:04:31.360Z,102250.75
2022-09-20T14:07:00.564Z,102255.78
2022-09-20T14:09:35.637Z,102248.19
2022-09-20T14:12:04.540Z,102256.50
2022-09-20T14:14:34.573Z,102251.44
2022-09-20T14:17:04.255Z,102252.41
2022-09-20T14:19:37.189Z,102257.59
2022-09-20T14:22:05.116Z,102252.09
2022-09-20T14:24:37.210Z,102251.53
2022-09-20T14:27:20.194Z,102261.16
2022-09-20T14:29:54.447Z,102249.59
2022-09-20T14:32:28.313Z,102247.13
2022-09-20T14:35:15.999Z,102245.50
2022-09-20T14:37:49.525Z,102248.78
2022-09-20T14:40:18.686Z,102254.25
2022-09-20T14:43:06.180Z,102246.34
2022-09-20T14:45:41.025Z,102244.63
2022-09-20T14:48:11.306Z,102247.91
2022-09-20T14:50:38.209Z,102250.34
2022-09-20T14:53:12.454Z,102259.03
2022-09-20T14:56:03.874Z,102248.28
2022-09-20T14:58:31.150Z,102249.34
2022-09-20T15:01:23.892Z,102253.56
2022-09-20T15:03:53.002Z,102251.44
2022-09-20T15:06:19.842Z,102250.31
2022-09-20T15:08:47.004Z,102250.03
2022-09-20T15:11:18.128Z,102248.91
2022-09-20T15:13:46.266Z,102247.47
2022-09-20T15:16:14.760Z,102251.81
2022-09-20T15:18:43.305Z,102239.88
2022-09-20T15:21:13.756Z,102244.22
2022-09-20T15:23:44.708Z,102244.97
2022-09-20T15:26:13.489Z,102242.78
2022-09-20T15:28:40.281Z,102252.72
2022-09-20T15:31:06.927Z,102247.97
2022-09-20T15:33:37.750Z,102245.97
2022-09-20T15:36:05.318Z,102242.97
2022-09-20T15:38:31.889Z,102249.69
2022-09-20T15:41:01.265Z,102241.06
2022-09-20T15:43:43.234Z,102252.00
2022-09-20T15:46:24.529Z,102246.81
2022-09-20T15:48:50.994Z,102244.78
2022-09-20T15:51:17.495Z,102245.75
2022-09-20T15:53:56.628Z,102251.06
2022-09-20T15:56:26.571Z,102249.03
2022-09-20T15:59:03.814Z,102256.03
2022-09-20T16:01:33.610Z,102254.00
2022-09-20T16:04:04.262Z,102258.03
2022-09-20T16:06:32.467Z,102259.28
2022-09-20T16:08:58.989Z,102265.00
2022-09-20T16:11:27.838Z,102262.56
2022-09-20T16:13:59.053Z,102264.81
2022-09-20T16:16:30.630Z,102267.97
2022-09-20T16:19:15.619Z,102264.66
2022-09-20T16:21:44.137Z,102265.66
2022-09-20T16:24:16.580Z,102259.59
2022-09-20T16:26:43.411Z,102269.78
2022-09-20T16:29:11.565Z,102272.66
2022-09-20T16:31:46.726Z,102274.50
2022-09-20T16:34:19.429Z,102269.44
2022-09-20T16:36:47.162Z,102267.72
2022-09-20T16:39:14.873Z,102272.44
2022-09-20T16:41:42.238Z,102270.25
2022-09-20T16:44:10.207Z,102273.66
2022-09-20T16:46:37.349Z,102269.00
2022-09-20T16:49:07.192Z,102283.03
2022-09-20T16:51:36.190Z,102281.44
2022-09-20T16:54:13.241Z,102280.00
2022-09-20T16:56:42.563Z,102275.53
2022-09-20T16:59:09.290Z,102281.50
2022-09-20T17:01:36.910Z,102286.50
2022-09-20T17:04:08.680Z,102288.72
2022-09-20T17:06:37.150Z,102285.28
2022-09-20T17:09:05.468Z,102291.84
2022-09-20T17:11:36.758Z,102286.66
2022-09-20T17:14:09.498Z,102288.66
2022-09-20T17:16:38.133Z,102291.50
2022-09-20T17:19:11.048Z,102287.19
2022-09-20T17:21:40.502Z,102286.53
2022-09-20T17:24:13.876Z,102295.97
2022-09-20T17:26:44.375Z,102286.47
2022-09-20T17:29:13.886Z,102295.16
2022-09-20T17:31:42.348Z,102301.13
2022-09-20T17:34:15.107Z,102303.50
2022-09-20T17:36:44.168Z,102305.88
2022-09-20T17:39:12.900Z,102312.81
2022-09-20T17:41:41.064Z,102312.47
2022-09-20T17:44:09.940Z,102312.84
2022-09-20T17:46:38.601Z,102318.66
2022-09-20T17:49:07.691Z,102324.50
2022-09-20T17:51:42.635Z,102317.81
2022-09-20T17:54:14.432Z,102329.25
2022-09-20T17:56:52.225Z,102329.88
2022-09-20T17:59:19.838Z,102333.22
2022-09-20T18:01:49.268Z,102331.13
2022-09-20T18:04:17.659Z,102336.31
2022-09-20T18:06:49.916Z,102327.91
2022-09-20T18:09:26.989Z,102341.00
2022-09-20T18:11:55.307Z,102341.47
2022-09-20T18:14:25.564Z,102336.66
2022-09-20T18:16:57.910Z,102341.47
2022-09-20T18:19:24.565Z,102348.25
2022-09-20T18:21:51.139Z,102354.88
2022-09-20T18:24:20.791Z,102343.38
2022-09-20T18:26:47.322Z,102346.31
2022-09-20T18:29:18.131Z,102349.41
2022-09-20T18:31:52.083Z,102354.31
2022-09-20T18:34:23.060Z,102362.78
2022-09-20T18:36:54.890Z,102358.81
2022-09-20T18:39:26.537Z,102361.13
2022-09-20T18:41:53.965Z,102361.50
2022-09-20T18:44:23.014Z,102365.41
2022-09-20T18:46:53.306Z,102354.91
2022-09-20T18:49:21.425Z,102367.09
2022-09-20T18:51:48.880Z,102370.38
2022-09-20T18:54:17.860Z,102368.25
2022-09-20T18:56:46.380Z,102374.97
2022-09-20T18:59:16.111Z,102377.28
2022-09-20T19:01:59.559Z,102374.16
2022-09-20T19:04:32.010Z,102380.88
2022-09-20T19:07:29.289Z,102375.91
2022-09-20T19:10:13.525Z,102379.84
2022-09-20T19:12:46.504Z,102381.78
2022-09-20T19:15:44.141Z,102383.00
2022-09-20T19:18:23.595Z,102386.69
2022-09-20T19:21:01.131Z,102392.44
2022-09-20T19:23:45.337Z,102395.47
2022-09-20T19:26:26.770Z,102394.81
2022-09-20T19:28:57.012Z,102394.16
2022-09-20T19:31:25.321Z,102402.63
2022-09-20T19:33:57.376Z,102402.09
2022-09-20T19:36:28.776Z,102406.00
2022-09-20T19:39:10.005Z,102409.78
2022-09-20T19:42:14.694Z,102403.91
2022-09-20T19:45:22.882Z,102414.09
2022-09-20T19:48:13.170Z,102420.81
2022-09-20T19:50:57.331Z,102420.16
2022-09-20T19:56:25.303Z,102428.84
2022-09-20T19:58:56.072Z,102428.94
2022-09-20T20:01:24.687Z,102431.53
2022-09-20T20:03:55.071Z,102433.28
2022-09-20T20:06:34.406Z,102441.19
2022-09-20T20:09:08.494Z,102437.31
2022-09-20T20:12:00.335Z,102431.00
2022-09-20T20:14:53.441Z,102431.66
2022-09-20T20:17:38.162Z,102436.97
2022-09-20T20:20:32.079Z,102440.66
2022-09-20T20:26:03.092Z,102441.63
2022-09-20T20:28:30.527Z,102444.47
2022-09-20T20:31:02.156Z,102444.56
2022-09-20T20:33:54.162Z,102449.22
2022-09-20T20:36:20.666Z,102450.97
2022-09-20T20:38:50.133Z,102451.38
2022-09-20T20:41:18.716Z,102457.88
2022-09-20T20:43:56.236Z,102461.13
2022-09-20T20:46:23.752Z,102459.81
2022-09-20T20:48:50.444Z,102465.44
2022-09-20T20:51:19.553Z,102470.09
2022-09-20T20:53:50.117Z,102474.63
2022-09-20T20:56:19.245Z,102467.59
2022-09-20T20:58:47.375Z,102470.28
2022-09-20T21:01:13.947Z,102471.28
2022-09-20T21:03:42.997Z,102471.47
2022-09-20T21:06:10.298Z,102472.56
2022-09-20T21:08:39.533Z,102478.06
2022-09-20T21:11:09.378Z,102480.88
2022-09-20T21:13:40.166Z,102485.44
2022-09-20T21:16:15.817Z,102484.66
2022-09-20T21:18:44.122Z,102482.94
2022-09-20T21:21:22.443Z,102484.97
2022-09-20T21:23:53.351Z,102492.25
2022-09-20T21:26:21.249Z,102488.00
2022-09-20T21:28:53.672Z,102494.84
2022-09-20T21:31:22.479Z,102494.34
2022-09-20T21:33:53.374Z,102492.06
2022-09-20T21:36:22.429Z,102491.28
2022-09-20T21:38:49.438Z,102494.97
2022-09-20T21:41:24.537Z,102492.25
2022-09-20T21:43:57.528Z,102496.81
2022-09-20T21:46:31.193Z,102492.25
2022-09-20T21:48:59.588Z,102495.94
2022-09-20T21:51:30.989Z,102494.09
2022-09-20T21:53:59.415Z,102500.47
2022-09-20T21:56:27.965Z,102500.47
2022-09-20T21:58:55.135Z,102496.81
2022-09-20T22:01:23.946Z,102497.66
2022-09-20T22:03:59.053Z,102500.28
2022-09-20T22:06:33.907Z,102499.31
2022-09-20T22:09:03.259Z,102499.22
2022-09-20T22:11:32.347Z,102501.81
2022-09-20T22:14:02.197Z,102496.31
2022-09-20T22:16:34.057Z,102497.94
2022-09-20T22:19:00.932Z,102504.22
2022-09-20T22:21:30.027Z,102498.13
2022-09-20T22:24:03.566Z,102495.63
2022-09-20T22:26:34.115Z,102494.84
2022-09-20T22:29:00.764Z,102496.81
2022-09-20T22:31:32.449Z,102491.59
2022-09-20T22:34:04.463Z,102498.06
2022-09-20T22:36:36.543Z,102498.16
2022-09-20T22:39:04.984Z,102492.66
2022-09-20T22:41:31.699Z,102497.00
2022-09-20T22:43:58.332Z,102497.66
2022-09-20T22:46:27.681Z,102499.31
2022-09-20T22:48:54.503Z,102497.28
2022-09-20T22:51:28.757Z,102488.94
2022-09-20T22:53:57.128Z,102491.44
2022-09-20T22:56:29.509Z,102494.06
2022-09-20T22:59:03.486Z,102490.47
2022-09-20T23:01:32.530Z,102498.59
2022-09-20T23:04:09.958Z,102488.75
2022-09-20T23:06:44.205Z,102498.59
2022-09-20T23:09:13.078Z,102495.03
2022-09-20T23:11:44.714Z,102498.59
2022-09-20T23:14:20.377Z,102504.81
2022-09-20T23:16:47.980Z,102505.59
2022-09-20T23:19:15.011Z,102501.13
2022-09-20T23:21:43.577Z,102496.00
2022-09-20T23:24:14.328Z,102506.16
2022-09-20T23:26:42.421Z,102499.88
2022-09-20T23:29:12.040Z,102505.09
2022-09-20T23:31:45.542Z,102509.53
2022-09-20T23:34:14.320Z,102505.75
2022-09-20T23:36:42.757Z,102501.13
2022-09-20T23:39:10.639Z,102502.00
2022-09-20T23:41:38.128Z,102502.00
2022-09-20T23:44:06.816Z,102508.41
2022-09-20T23:46:34.156Z,102502.13
2022-09-20T23:49:00.792Z,102503.84
2022-09-20T23:51:28.976Z,102502.00
2022-09-20T23:53:58.461Z,102501.06
2022-09-20T23:56:25.480Z,102504.53
2022-09-20T23:58:52.325Z,102501.75
